Todos
Scott Muni Airport (Oneida, TN) SCX Condiciones meteorológicas
|
Oneida, TN (KSCX)
Cielo despejado
Vientos calmos |
|
23 °C |
There is no TAF data available at SCX or any nearby airports.
Historial METAR SCX reciente
| Date | Time (EDT) | Flight Rules | Wind Dir. | Speed | Type | Height AGL (ft) | Visibility | Temp (°C) | Temp (°F) | Dew Point (°C) | Dew Point (°F) | Rel. Humid. | Pressure | Density Altitude | Remarks |
|---|---|---|---|---|---|---|---|---|---|---|---|---|---|---|---|
| 05-sep | 11:35PM | VFR | Calm | 10 miles | 23° | 73° | 22° | 71° | 94% | 29.96 in Hg | 2.702 ft | ||||
| 05-sep | 11:15PM | VFR | Calm | 10 miles | 23° | 73° | 22° | 71° | 94% | 29.95 in Hg | 2.712 ft | ||||
| 05-sep | 10:55PM | VFR | Calm | 10 miles | 24° | 75° | 22° | 71° | 89% | 29.95 in Hg | 2.832 ft | ||||
| 05-sep | 10:35PM | VFR | Calm | 10 miles | 24° | 75° | 22° | 71° | 89% | 29.95 in Hg | 2.832 ft | ||||
| 05-sep | 10:15PM | VFR | Calm | 10 miles | 24° | 75° | 21° | 69° | 83% | 29.94 in Hg | 2.842 ft | ||||
| 05-sep | 09:55PM | VFR | Calm | 10 miles | 24° | 75° | 21° | 69° | 83% | 29.93 in Hg | 2.852 ft | ||||
| 05-sep | 09:35PM | VFR | Calm | 10 miles | 26° | 78° | 21° | 69° | 74% | 29.94 in Hg | 3.082 ft | ||||
| 05-sep | 09:15PM | VFR | Calm | 10 miles | 26° | 78° | 21° | 69° | 74% | 29.93 in Hg | 3.092 ft | ||||
| 05-sep | 08:55PM | VFR | Calm | 10 miles | 27° | 80° | 21° | 69° | 70% | 29.93 in Hg | 3.212 ft | ||||
| 05-sep | 08:15PM | VFR | 310° | 5 kt | 10 miles | 29° | 84° | 22° | 71° | 66% | 29.93 in Hg | 3.452 ft | |||
| 05-sep | 07:55PM | VFR | Calm | 10 miles | 30° | 86° | 21° | 69° | 59% | 29.93 in Hg | 3.572 ft | ||||
| 05-sep | 07:15PM | VFR | 330° | 4 kt | 10 miles | 32° | 89° | 21° | 69° | 52% | 29.93 in Hg | 3.812 ft | |||
| 05-sep | 06:55PM | VFR | 350° | 5 kt | 10 miles | 32° | 89° | 21° | 69° | 52% | 29.93 in Hg | 3.812 ft | |||
| 05-sep | 06:15PM | VFR | Variable | 5 kt | 10 miles | 32° | 89° | 21° | 69° | 52% | 29.92 in Hg | 3.822 ft | |||
| 05-sep | 05:55PM | VFR | 360° | 6 kt | 10 miles | 33° | 91° | 21° | 69° | 49% | 29.92 in Hg | 3.942 ft | |||
| 05-sep | 05:15PM | VFR | 350° | 9 kt | 10 miles | 33° | 91° | 20° | 68° | 46% | 29.93 in Hg | 3.932 ft | |||
| 05-sep | 04:55PM | VFR | 330° | 9 kt | 10 miles | 33° | 91° | 21° | 69° | 49% | 29.94 in Hg | 3.922 ft | |||
| 05-sep | 04:15PM | VFR | 300° | 4 kt | 10 miles | 33° | 91° | 21° | 69° | 49% | 29.94 in Hg | 3.922 ft | |||
| 05-sep | 03:55PM | VFR | 20° | 9 kt | 10 miles | 33° | 91° | 21° | 69° | 49% | 29.94 in Hg | 3.922 ft | |||
| 05-sep | 03:15PM | VFR | Calm | 10 miles | 32° | 89° | 22° | 71° | 56% | 29.97 in Hg | 3.772 ft | ||||
| 05-sep | 02:55PM | VFR | 130° | 3 kt | 10 miles | 32° | 89° | 22° | 71° | 56% | 29.97 in Hg | 3.772 ft | |||
| 05-sep | 02:15PM | VFR | Calm | 10 miles | 31° | 87° | 22° | 71° | 59% | 29.99 in Hg | 3.632 ft | ||||
| 05-sep | 01:55PM | VFR | Calm | 10 miles | 30° | 86° | 21° | 69° | 59% | 29.99 in Hg | 3.512 ft | ||||
| 05-sep | 01:15PM | VFR | Variable | 6 kt | 10 miles | 29° | 84° | 23° | 73° | 70% | 30.00 in Hg | 3.382 ft |
Entrar
| Tu navegador no está contemplado. eleva la categoría de tu navegador |
